Air Navigation Services of Czech Republic
Airport: LKCV Updated:  13.11.2018 20:01:07  UTC
 METAR LKCV 13.11. 20:00 ...
METAR LKCV 132000Z 27010KT CAVOK 09/07 Q1028 NOSIG RMK BLU BLU=
 TAF LKCV 13.11. 17:00 ...
TAF LKCV 131700Z 1318/1418 27010KT 9999 SCT030      BECMG 1405/1407 29005KT=